createdAt,value
2023-02-03T00:02:11.811Z,95.31
2023-02-03T00:04:38.196Z,96.62
2023-02-03T00:07:04.521Z,96.61
2023-02-03T00:09:30.975Z,96.91
2023-02-03T00:11:57.388Z,95.80
2023-02-03T00:14:23.649Z,94.74
2023-02-03T00:16:50.094Z,95.86
2023-02-03T00:19:17.622Z,95.62
2023-02-03T00:21:44.322Z,95.68
2023-02-03T00:24:10.745Z,94.98
2023-02-03T00:26:40.628Z,95.02
2023-02-03T00:29:06.977Z,94.56
2023-02-03T00:31:33.410Z,94.32
2023-02-03T00:33:59.762Z,93.71
2023-02-03T00:36:26.643Z,92.56
2023-02-03T00:38:53.412Z,92.86
2023-02-03T00:41:20.930Z,92.79
2023-02-03T00:43:47.493Z,93.08
2023-02-03T00:46:14.228Z,92.11
2023-02-03T00:48:40.546Z,92.55
2023-02-03T00:51:07.159Z,92.45
2023-02-03T00:53:33.618Z,92.02
2023-02-03T00:55:59.995Z,92.40
2023-02-03T00:58:26.334Z,92.09
2023-02-03T01:00:54.093Z,92.09
2023-02-03T01:03:20.435Z,92.37
2023-02-03T01:05:46.737Z,92.74
2023-02-03T01:08:13.066Z,92.82
2023-02-03T01:10:39.426Z,92.95
2023-02-03T01:13:05.742Z,92.81
2023-02-03T01:15:32.086Z,93.29
2023-02-03T01:17:58.481Z,93.24
2023-02-03T01:20:25.127Z,93.39
2023-02-03T01:22:51.875Z,92.83
2023-02-03T01:25:18.237Z,92.62
2023-02-03T01:27:44.654Z,93.42
2023-02-03T01:30:11.288Z,92.63
2023-02-03T01:32:37.633Z,92.52
2023-02-03T01:35:04.015Z,93.22
2023-02-03T01:37:30.324Z,93.00
2023-02-03T01:39:57.532Z,92.46
2023-02-03T01:42:23.955Z,92.25
2023-02-03T01:44:52.403Z,92.16
2023-02-03T01:47:28.505Z,92.34
2023-02-03T01:49:54.821Z,91.90
2023-02-03T01:52:21.159Z,92.50
2023-02-03T01:54:48.959Z,92.21
2023-02-03T01:57:31.652Z,92.58
2023-02-03T02:00:00.173Z,93.51
2023-02-03T02:02:26.683Z,92.50
2023-02-03T02:05:28.707Z,92.21
2023-02-03T02:07:56.573Z,93.10
2023-02-03T02:10:22.990Z,91.87
2023-02-03T02:12:49.803Z,93.13
2023-02-03T02:15:16.311Z,92.87
2023-02-03T02:17:45.577Z,92.92
2023-02-03T02:20:24.204Z,93.06
2023-02-03T02:23:09.694Z,92.01
2023-02-03T02:25:41.703Z,91.90
2023-02-03T02:28:24.735Z,91.05
2023-02-03T02:30:57.169Z,92.41
2023-02-03T02:33:23.518Z,91.13
2023-02-03T02:35:58.732Z,91.70
2023-02-03T02:38:30.451Z,91.39
2023-02-03T02:41:08.315Z,90.90
2023-02-03T02:43:41.102Z,91.90
2023-02-03T02:46:12.990Z,91.73
2023-02-03T02:48:53.332Z,92.16
2023-02-03T02:51:21.421Z,91.66
2023-02-03T02:53:54.709Z,91.98
2023-02-03T02:56:21.413Z,90.43
2023-02-03T02:58:49.503Z,90.98
2023-02-03T03:01:17.251Z,89.98
2023-02-03T03:03:45.117Z,89.76
2023-02-03T03:06:26.171Z,89.96
2023-02-03T03:08:55.587Z,90.38
2023-02-03T03:11:22.994Z,89.83
2023-02-03T03:13:51.400Z,89.45
2023-02-03T03:16:20.240Z,89.21
2023-02-03T03:18:48.627Z,88.97
2023-02-03T03:21:18.801Z,89.31
2023-02-03T03:23:46.730Z,89.88
2023-02-03T03:26:28.776Z,89.04
2023-02-03T03:29:01.652Z,89.58
2023-02-03T03:31:28.113Z,89.60
2023-02-03T03:33:54.511Z,88.90
2023-02-03T03:36:30.290Z,89.99
2023-02-03T03:39:11.969Z,88.80
2023-02-03T03:41:44.997Z,88.64
2023-02-03T03:44:13.281Z,89.50
2023-02-03T03:46:49.402Z,89.19
2023-02-03T03:49:16.514Z,89.31
2023-02-03T03:51:46.287Z,89.35
2023-02-03T03:54:15.468Z,89.53
2023-02-03T03:56:45.424Z,89.44
2023-02-03T03:59:13.333Z,89.42
2023-02-03T04:01:40.715Z,89.02
2023-02-03T04:04:09.306Z,88.97
2023-02-03T04:06:37.221Z,89.09
2023-02-03T04:09:03.590Z,89.39
2023-02-03T04:11:48.600Z,88.41
2023-02-03T04:14:14.943Z,88.96
2023-02-03T04:16:41.288Z,89.25
2023-02-03T04:19:08.551Z,88.36
2023-02-03T04:21:34.993Z,87.92
2023-02-03T04:24:01.281Z,87.78
2023-02-03T04:26:27.598Z,88.30
2023-02-03T04:28:53.892Z,87.33
2023-02-03T04:31:20.555Z,86.83
2023-02-03T04:33:47.251Z,87.08
2023-02-03T04:36:13.534Z,86.22
2023-02-03T04:38:39.853Z,86.80
2023-02-03T04:41:06.154Z,86.94
2023-02-03T04:43:32.549Z,85.94
2023-02-03T04:46:01.658Z,85.77
2023-02-03T04:48:28.221Z,86.07
2023-02-03T04:50:54.538Z,85.59
2023-02-03T04:53:20.829Z,85.49
2023-02-03T04:55:47.953Z,86.08
2023-02-03T04:58:14.297Z,86.91
2023-02-03T05:00:40.839Z,85.94
2023-02-03T05:03:07.225Z,85.22
2023-02-03T05:05:33.591Z,85.45
2023-02-03T05:07:59.860Z,84.70
2023-02-03T05:10:26.499Z,85.02
2023-02-03T05:12:52.939Z,85.53
2023-02-03T05:15:19.217Z,85.78
2023-02-03T05:17:45.529Z,85.72
2023-02-03T05:20:11.972Z,85.18
2023-02-03T05:22:38.410Z,85.60
2023-02-03T05:25:05.092Z,87.05
2023-02-03T05:27:31.492Z,86.83
2023-02-03T05:29:58.016Z,86.37
2023-02-03T05:32:24.315Z,87.28
2023-02-03T05:34:50.602Z,87.22
2023-02-03T05:37:16.906Z,87.06
2023-02-03T05:39:43.177Z,86.71
2023-02-03T05:42:09.471Z,86.42
2023-02-03T05:44:35.799Z,86.55
2023-02-03T05:47:02.077Z,86.32
2023-02-03T05:49:28.386Z,86.26
2023-02-03T05:51:55.162Z,85.62
2023-02-03T05:54:21.605Z,86.96
2023-02-03T05:56:48.058Z,86.69
2023-02-03T05:59:14.523Z,86.59
2023-02-03T06:01:40.886Z,86.27
2023-02-03T06:04:07.372Z,87.47
2023-02-03T06:06:34.246Z,87.45
2023-02-03T06:09:04.768Z,87.42
2023-02-03T06:11:31.660Z,87.57
2023-02-03T06:14:00.910Z,87.48
2023-02-03T06:16:27.883Z,87.94
2023-02-03T06:18:55.498Z,87.64
2023-02-03T06:21:22.295Z,87.64
2023-02-03T06:23:51.461Z,87.60
2023-02-03T06:26:17.787Z,87.92
2023-02-03T06:28:44.122Z,87.32
2023-02-03T06:31:10.551Z,86.79
2023-02-03T06:33:36.917Z,86.44
2023-02-03T06:36:03.300Z,87.15
2023-02-03T06:38:29.604Z,87.17
2023-02-03T06:40:55.901Z,86.28
2023-02-03T06:43:22.413Z,86.18
2023-02-03T06:45:48.738Z,85.92
2023-02-03T06:48:15.276Z,86.78
2023-02-03T06:50:41.864Z,85.88
2023-02-03T06:53:08.198Z,86.48
2023-02-03T06:55:34.488Z,87.03
2023-02-03T06:58:00.828Z,86.99
2023-02-03T07:00:27.395Z,85.82
2023-02-03T07:02:58.150Z,87.01
2023-02-03T07:05:25.187Z,86.23
2023-02-03T07:07:52.022Z,85.94
2023-02-03T07:10:18.407Z,86.82
2023-02-03T07:12:44.757Z,86.24
2023-02-03T07:15:11.995Z,87.01
2023-02-03T07:17:39.136Z,86.09
2023-02-03T07:20:11.681Z,85.84
2023-02-03T07:22:39.392Z,86.83
2023-02-03T07:25:05.974Z,86.64
2023-02-03T07:27:32.293Z,86.07
2023-02-03T07:29:58.563Z,86.30
2023-02-03T07:32:24.856Z,86.10
2023-02-03T07:34:51.151Z,87.46
2023-02-03T07:37:17.443Z,87.96
2023-02-03T07:39:44.104Z,89.85
2023-02-03T07:42:11.122Z,90.73
2023-02-03T07:44:37.421Z,90.75
2023-02-03T07:47:03.707Z,91.90
2023-02-03T07:49:30.073Z,91.34
2023-02-03T07:51:56.566Z,90.37
2023-02-03T07:54:22.879Z,89.64
2023-02-03T07:56:49.182Z,89.71
2023-02-03T07:59:16.514Z,89.47
2023-02-03T08:01:42.844Z,89.04
2023-02-03T08:04:09.167Z,87.88
2023-02-03T08:06:35.596Z,88.66
2023-02-03T08:09:01.891Z,87.27
2023-02-03T08:11:28.194Z,88.42
2023-02-03T08:13:54.530Z,87.64
2023-02-03T08:16:20.934Z,86.81
2023-02-03T08:18:47.279Z,87.19
2023-02-03T08:21:13.589Z,86.34
2023-02-03T08:23:39.927Z,86.04
2023-02-03T08:26:06.209Z,86.98
2023-02-03T08:28:32.561Z,87.02
2023-02-03T08:30:58.962Z,86.64
2023-02-03T08:33:25.361Z,85.90
2023-02-03T08:35:51.744Z,86.50
2023-02-03T08:38:18.638Z,86.37
2023-02-03T08:40:44.994Z,85.88
2023-02-03T08:43:11.349Z,86.21
2023-02-03T08:45:38.966Z,86.35
2023-02-03T08:48:05.361Z,86.56
2023-02-03T08:50:31.905Z,85.53
2023-02-03T08:52:58.351Z,85.52
2023-02-03T08:55:24.737Z,85.92
2023-02-03T08:57:51.041Z,86.21
2023-02-03T09:00:17.547Z,85.86
2023-02-03T09:02:43.868Z,86.05
2023-02-03T09:05:10.308Z,86.00
2023-02-03T09:07:36.735Z,85.12
2023-02-03T09:10:03.173Z,84.66
2023-02-03T09:12:29.449Z,84.93
2023-02-03T09:14:55.772Z,84.93
2023-02-03T09:17:22.045Z,85.21
2023-02-03T09:19:48.412Z,84.29
2023-02-03T09:22:14.758Z,83.81
2023-02-03T09:24:41.330Z,83.81
2023-02-03T09:27:07.662Z,83.53
2023-02-03T09:29:34.020Z,83.67
2023-02-03T09:32:01.102Z,84.31
2023-02-03T09:34:27.413Z,83.86
2023-02-03T09:36:53.724Z,83.69
2023-02-03T09:39:20.062Z,83.06
2023-02-03T09:41:56.597Z,83.05
2023-02-03T09:44:27.522Z,83.92
2023-02-03T09:46:56.682Z,83.52
2023-02-03T09:49:28.610Z,83.40
2023-02-03T09:51:54.951Z,83.93
2023-02-03T09:54:23.969Z,83.58
2023-02-03T09:56:52.538Z,83.46
2023-02-03T09:59:19.503Z,84.21
2023-02-03T10:01:52.889Z,83.23
2023-02-03T10:04:28.494Z,83.48
2023-02-03T10:06:58.732Z,83.49
2023-02-03T10:09:27.871Z,83.28
2023-02-03T10:12:12.754Z,83.60
2023-02-03T10:14:58.561Z,82.79
2023-02-03T10:17:33.834Z,83.48
2023-02-03T10:20:21.889Z,83.45
2023-02-03T10:22:53.493Z,82.23
2023-02-03T10:25:25.002Z,82.71
2023-02-03T10:27:55.087Z,82.42
2023-02-03T10:30:21.629Z,81.86
2023-02-03T10:32:54.152Z,81.94
2023-02-03T10:35:21.526Z,81.43
2023-02-03T10:37:49.969Z,81.41
2023-02-03T10:40:16.930Z,81.48
2023-02-03T10:43:06.460Z,81.55
2023-02-03T10:45:36.282Z,81.65
2023-02-03T10:48:04.202Z,81.26
2023-02-03T10:50:33.586Z,81.21
2023-02-03T10:53:18.356Z,81.66
2023-02-03T10:55:46.608Z,81.36
2023-02-03T10:58:16.558Z,81.62
2023-02-03T11:00:43.282Z,81.79
2023-02-03T11:03:32.983Z,82.04
2023-02-03T11:06:11.641Z,82.78
2023-02-03T11:08:40.287Z,85.81
2023-02-03T11:11:13.259Z,86.90
2023-02-03T11:13:39.659Z,88.67
2023-02-03T11:16:10.753Z,89.90
2023-02-03T11:18:47.918Z,92.33
2023-02-03T11:21:19.764Z,94.38
2023-02-03T11:23:46.031Z,94.71
2023-02-03T11:26:14.295Z,95.50
2023-02-03T11:28:46.339Z,96.33
2023-02-03T11:31:24.355Z,95.71
2023-02-03T11:33:56.749Z,95.10
2023-02-03T11:36:26.213Z,95.90
2023-02-03T11:38:52.585Z,96.39
2023-02-03T11:41:20.205Z,96.22
2023-02-03T11:43:47.764Z,95.38
2023-02-03T11:46:15.185Z,96.08
2023-02-03T11:48:59.379Z,96.20
2023-02-03T11:51:40.187Z,95.20
2023-02-03T11:54:14.941Z,94.53
2023-02-03T11:56:43.925Z,92.87
2023-02-03T11:59:13.360Z,94.21
2023-02-03T12:02:01.884Z,93.44
2023-02-03T12:04:37.312Z,92.90
2023-02-03T12:07:22.270Z,93.10
2023-02-03T12:09:54.887Z,92.22
2023-02-03T12:12:21.143Z,92.19
2023-02-03T12:15:06.446Z,91.37
2023-02-03T12:17:35.774Z,90.66
2023-02-03T12:20:05.249Z,91.98
2023-02-03T12:22:45.033Z,90.97
2023-02-03T12:25:41.049Z,91.22
2023-02-03T12:28:27.434Z,89.90
2023-02-03T12:31:17.953Z,89.01
2023-02-03T12:33:49.258Z,89.07
2023-02-03T12:36:19.482Z,88.24
2023-02-03T12:38:51.682Z,87.28
2023-02-03T12:41:47.637Z,87.93
2023-02-03T12:45:06.284Z,86.40
2023-02-03T12:51:30.471Z,84.45
2023-02-03T12:54:01.051Z,83.82
2023-02-03T12:56:33.691Z,83.26
2023-02-03T12:59:10.328Z,83.36
2023-02-03T13:01:40.702Z,83.37
2023-02-03T13:04:07.007Z,82.23
2023-02-03T13:06:52.119Z,82.18
2023-02-03T13:09:18.400Z,82.15
2023-02-03T13:11:57.773Z,81.89
2023-02-03T13:14:28.519Z,80.60
2023-02-03T13:17:32.474Z,80.39
2023-02-03T13:23:07.411Z,79.67
2023-02-03T13:25:53.460Z,79.49
2023-02-03T13:28:27.580Z,78.45
2023-02-03T13:31:13.080Z,78.26
2023-02-03T13:33:47.616Z,78.39
2023-02-03T13:36:42.152Z,79.71
2023-02-03T13:39:08.405Z,79.13
2023-02-03T13:41:34.831Z,80.45
2023-02-03T13:44:01.758Z,79.17
2023-02-03T13:46:31.110Z,79.62
2023-02-03T13:49:01.911Z,79.07
2023-02-03T13:51:47.098Z,79.41
2023-02-03T13:54:16.568Z,79.63
2023-02-03T13:56:52.323Z,78.85
2023-02-03T13:59:19.245Z,79.13
2023-02-03T14:01:45.907Z,79.40
2023-02-03T14:07:43.015Z,78.84
2023-02-03T14:10:12.272Z,79.09
2023-02-03T14:12:40.216Z,79.63
2023-02-03T14:15:25.162Z,78.37
2023-02-03T14:17:51.526Z,77.37
2023-02-03T14:20:27.265Z,78.34
2023-02-03T14:23:13.985Z,77.09
2023-02-03T14:29:27.271Z,77.41
2023-02-03T14:31:58.836Z,77.29
2023-02-03T14:34:34.207Z,75.35
2023-02-03T14:40:47.263Z,74.48
2023-02-03T14:43:28.258Z,74.71
2023-02-03T14:46:13.476Z,75.00
2023-02-03T14:48:48.544Z,75.57
2023-02-03T14:51:31.133Z,75.46
2023-02-03T14:53:57.380Z,74.12
2023-02-03T14:56:23.958Z,75.02
2023-02-03T14:58:56.458Z,74.66
2023-02-03T15:01:35.006Z,73.61
2023-02-03T15:04:13.552Z,73.60
2023-02-03T15:06:44.099Z,73.00
2023-02-03T15:09:33.237Z,72.41
2023-02-03T15:11:59.620Z,73.50
2023-02-03T15:14:27.021Z,73.18
2023-02-03T15:16:54.977Z,72.29
2023-02-03T15:19:25.524Z,72.89
2023-02-03T15:21:52.158Z,72.94
2023-02-03T15:24:22.170Z,73.17
2023-02-03T15:26:50.081Z,73.48
2023-02-03T15:29:42.881Z,75.10
2023-02-03T15:32:12.750Z,74.10
2023-02-03T15:34:39.466Z,73.74
2023-02-03T15:37:08.674Z,73.22
2023-02-03T15:39:46.004Z,74.51
2023-02-03T15:42:24.965Z,73.87
2023-02-03T15:44:59.380Z,74.28
2023-02-03T15:47:39.597Z,75.48
2023-02-03T15:50:30.729Z,73.98
2023-02-03T15:52:59.409Z,73.84
2023-02-03T15:55:38.989Z,74.96
2023-02-03T15:58:05.565Z,75.90
2023-02-03T16:00:35.413Z,75.46
2023-02-03T16:03:03.774Z,75.11
2023-02-03T16:05:32.569Z,74.45
2023-02-03T16:08:17.895Z,74.64
2023-02-03T16:10:44.164Z,75.56
2023-02-03T16:13:21.034Z,75.57
2023-02-03T16:16:00.803Z,75.16
2023-02-03T16:18:27.239Z,75.21
2023-02-03T16:20:53.636Z,75.30
2023-02-03T16:23:24.139Z,75.54
2023-02-03T16:26:07.608Z,75.64
2023-02-03T16:28:52.950Z,75.68
2023-02-03T16:31:39.437Z,76.32
2023-02-03T16:34:32.203Z,76.12
2023-02-03T16:37:17.502Z,75.54
2023-02-03T17:55:37.543Z,74.33
2023-02-03T18:33:09.869Z,76.12
2023-02-03T18:35:45.797Z,76.07
2023-02-03T18:43:35.940Z,77.34
2023-02-03T18:46:16.263Z,76.84
2023-02-03T18:48:42.676Z,76.59
2023-02-03T18:51:09.770Z,77.63
2023-02-03T18:53:38.514Z,77.21
2023-02-03T18:56:28.499Z,77.82
2023-02-03T18:58:55.355Z,77.80
2023-02-03T19:01:23.196Z,77.72
2023-02-03T19:03:49.897Z,78.08
2023-02-03T19:06:16.514Z,78.47
2023-02-03T19:08:42.848Z,79.62
2023-02-03T19:11:09.199Z,78.85
2023-02-03T19:13:35.488Z,79.32
2023-02-03T19:16:02.484Z,78.74
2023-02-03T19:18:30.676Z,79.71
2023-02-03T19:20:57.043Z,79.45
2023-02-03T19:23:27.269Z,79.19
2023-02-03T19:29:10.608Z,80.27
2023-02-03T19:31:37.312Z,80.94
2023-02-03T19:34:03.784Z,80.12
2023-02-03T19:36:30.463Z,80.45
2023-02-03T19:38:56.810Z,80.10
2023-02-03T19:42:54.016Z,80.25
2023-02-03T19:45:20.715Z,81.00
2023-02-03T19:47:47.200Z,81.05
2023-02-03T19:50:13.697Z,81.06
2023-02-03T19:52:40.179Z,81.05
2023-02-03T19:55:07.528Z,81.68
2023-02-03T19:57:39.851Z,82.30
2023-02-03T20:00:07.176Z,82.27
2023-02-03T20:02:33.731Z,82.37
2023-02-03T20:05:00.215Z,82.31
2023-02-03T20:07:28.582Z,82.28
2023-02-03T20:09:55.111Z,82.92
2023-02-03T20:12:21.563Z,82.64
2023-02-03T20:14:47.946Z,82.78
2023-02-03T20:17:14.454Z,82.52
2023-02-03T20:19:40.848Z,82.41
2023-02-03T20:22:07.216Z,82.68
2023-02-03T20:24:33.768Z,83.21
2023-02-03T20:27:00.349Z,83.43
2023-02-03T20:29:35.625Z,83.50
2023-02-03T20:32:04.525Z,82.67
2023-02-03T20:34:30.967Z,83.59
2023-02-03T20:36:58.881Z,83.17
2023-02-03T20:39:25.748Z,83.56
2023-02-03T20:41:52.500Z,82.93
2023-02-03T20:44:19.057Z,83.49
2023-02-03T20:46:45.766Z,84.43
2023-02-03T20:49:13.767Z,84.26
2023-02-03T20:51:40.613Z,84.73
2023-02-03T20:54:21.995Z,84.31
2023-02-03T20:56:48.828Z,85.12
2023-02-03T20:59:19.791Z,85.37
2023-02-03T21:01:47.073Z,84.99
2023-02-03T21:04:48.355Z,85.65
2023-02-03T21:07:21.448Z,85.30
2023-02-03T21:09:47.830Z,84.77
2023-02-03T21:12:14.971Z,85.08
2023-02-03T21:14:49.709Z,85.66
2023-02-03T21:17:20.741Z,85.64
2023-02-03T21:19:47.740Z,85.56
2023-02-03T21:22:18.031Z,85.64
2023-02-03T21:25:01.569Z,85.66
2023-02-03T21:27:35.002Z,85.90
2023-02-03T21:30:22.321Z,85.99
2023-02-03T21:32:48.683Z,86.53
2023-02-03T21:35:35.030Z,86.91
2023-02-03T21:38:02.522Z,87.65
2023-02-03T21:40:34.557Z,87.33
2023-02-03T21:43:03.322Z,86.79
2023-02-03T21:45:42.446Z,87.29
2023-02-03T21:48:27.187Z,87.54
2023-02-03T21:50:55.494Z,87.46
2023-02-03T21:53:49.220Z,87.09
2023-02-03T21:56:17.771Z,87.42
2023-02-03T21:58:47.249Z,87.52
2023-02-03T22:01:16.715Z,87.80
2023-02-03T22:03:47.549Z,88.36
2023-02-03T22:06:25.288Z,89.08
2023-02-03T22:08:54.560Z,89.59
2023-02-03T22:11:22.570Z,89.28
2023-02-03T22:13:49.585Z,88.57
2023-02-03T22:16:20.066Z,88.07
2023-02-03T22:18:48.033Z,89.11
2023-02-03T22:21:15.045Z,89.27
2023-02-03T22:23:42.253Z,88.80
2023-02-03T22:26:09.963Z,88.96
2023-02-03T22:28:36.721Z,88.94
2023-02-03T22:31:05.058Z,88.64
2023-02-03T22:33:32.012Z,88.91
2023-02-03T22:35:58.530Z,88.29
2023-02-03T22:38:25.298Z,88.74
2023-02-03T22:40:52.514Z,88.00
2023-02-03T22:43:19.121Z,87.99
2023-02-03T22:45:45.582Z,87.37
2023-02-03T22:48:12.160Z,87.05
2023-02-03T22:50:38.865Z,87.14
2023-02-03T22:53:05.965Z,87.80
2023-02-03T22:55:32.495Z,86.92
2023-02-03T22:57:59.213Z,87.35
2023-02-03T23:00:26.722Z,87.65
2023-02-03T23:02:53.613Z,87.69
2023-02-03T23:05:20.491Z,87.64
2023-02-03T23:07:47.502Z,87.53
2023-02-03T23:10:19.896Z,87.74
2023-02-03T23:12:46.697Z,87.49
2023-02-03T23:15:13.943Z,88.26
2023-02-03T23:17:40.748Z,88.53
2023-02-03T23:20:09.221Z,87.31
2023-02-03T23:22:35.791Z,88.86
2023-02-03T23:25:02.652Z,88.14
2023-02-03T23:27:29.066Z,88.96
2023-02-03T23:29:55.473Z,89.08
2023-02-03T23:32:22.110Z,89.44
2023-02-03T23:35:06.867Z,90.11
2023-02-03T23:37:33.353Z,89.14
2023-02-03T23:40:00.381Z,89.42
2023-02-03T23:42:26.936Z,90.63
2023-02-03T23:44:53.355Z,90.52
2023-02-03T23:47:19.756Z,90.64
2023-02-03T23:49:46.226Z,90.93
2023-02-03T23:52:12.687Z,90.70
2023-02-03T23:54:39.123Z,91.21
2023-02-03T23:57:05.600Z,91.26
2023-02-03T23:59:32.151Z,90.14
